Kezdőlap
METAR-TAF:

METAR-TAF

Repülőterek :

Ouagadougou, Burkina Faso

földrajzi szélesség: 12-21N, földrajzi hosszúság: 001-31W, magasság: 316 m

Jelenlegi meteorológiai megfigyelések

A jelentés 46 perccel ezelõtt készült, 08:00 UTC
Nyugati szél 8 kt
Hőmérséklet 33°C
Páratartalom 46%
Légköri nyomás 1012 hPa
Látótávolság: 6000 m

METAR: DFFD 200800Z 26008KT 6000 NSC 33/20 Q1012 NOSIG

Idő: 08:46 (08:46 UTC)

Előrejelzés

A jelentés 3 órával és 46 perccel ezelõtt készült, 05:00 UTC
Az előrejelzés 20-én 06 óra UTC és 21-én 12 óra UTC között érvényes
Különbözõ irányokból fújó szél 8 kt
Látótávolság: 8000 m
20-én 06 óra UTC és 20-én 10 óra UTC között ideiglenes
Látótávolság: 3500 m
Száraz légköri homály

TAF: DFFD 200500Z 2006/2112 VRB08KT 8000 NSC TEMPO 2006/2010 3500 HZ

Meteorológiai megfigyelések és előrejelzések több, mint 4000 repülőtéren (METAR és TAF jelentéseket).

A térképen piros és sárga pontok jelzik az elérhető meteorológiai állomásokat.

Mozgassa az egeret a pont fölött, hogy megjelenjen az állomás neve.

Azután kattintson az időjárási megfigyelések és előrejelzések megtekintéséhez.

A térkép megváltoztatása: kattintson a fekete keresztel jelölt zöld gombra ráközelítéshez, a vonallal jelölt zöld gombra távolításhoz, vagy a zöld nyilakra a szomszédos térképek eléréséhez.


METAR-TAF: